createdAt,value
2022-10-26T00:00:30.568Z,0
2022-10-26T00:01:25.573Z,0
2022-10-26T00:02:21.145Z,0
2022-10-26T00:03:34.927Z,0
2022-10-26T00:04:21.484Z,0
2022-10-26T00:05:26.195Z,0
2022-10-26T00:06:21.621Z,0
2022-10-26T00:07:37.003Z,0
2022-10-26T00:08:24.342Z,0
2022-10-26T00:09:28.333Z,0
2022-10-26T00:10:29.580Z,0
2022-10-26T00:11:26.273Z,0
2022-10-26T00:12:24.014Z,0
2022-10-26T00:13:25.835Z,0
2022-10-26T00:14:28.201Z,0
2022-10-26T00:15:28.351Z,0
2022-10-26T00:16:20.413Z,0
2022-10-26T00:17:24.690Z,0
2022-10-26T00:18:26.180Z,0
2022-10-26T00:19:24.024Z,0
2022-10-26T00:20:21.184Z,0
2022-10-26T00:21:22.055Z,0
2022-10-26T00:22:27.786Z,0
2022-10-26T00:23:25.273Z,0
2022-10-26T00:24:31.959Z,0
2022-10-26T00:25:19.231Z,0
2022-10-26T00:26:24.181Z,0
2022-10-26T00:27:24.941Z,0
2022-10-26T00:28:28.261Z,0
2022-10-26T00:29:24.742Z,0
2022-10-26T00:30:22.606Z,0
2022-10-26T00:31:31.137Z,0
2022-10-26T00:32:23.603Z,0
2022-10-26T00:33:22.199Z,0
2022-10-26T00:34:30.207Z,0
2022-10-26T00:35:45.020Z,0
2022-10-26T00:36:26.884Z,0
2022-10-26T00:37:20.786Z,0
2022-10-26T00:38:22.093Z,0
2022-10-26T00:39:27.592Z,0
2022-10-26T00:40:23.601Z,0
2022-10-26T00:41:32.386Z,0
2022-10-26T00:42:28.512Z,0
2022-10-26T00:43:28.463Z,0
2022-10-26T00:44:24.354Z,0
2022-10-26T00:45:28.866Z,0
2022-10-26T00:46:30.124Z,0
2022-10-26T00:47:24.729Z,0
2022-10-26T00:48:36.418Z,0
2022-10-26T00:49:23.824Z,0
2022-10-26T00:50:24.535Z,0
2022-10-26T00:51:23.247Z,0
2022-10-26T00:52:30.592Z,0
2022-10-26T00:53:26.504Z,0
2022-10-26T00:54:22.903Z,0
2022-10-26T00:55:23.782Z,0
2022-10-26T00:56:23.112Z,0
2022-10-26T00:57:25.885Z,0
2022-10-26T00:58:20.663Z,0
2022-10-26T00:59:20.359Z,0
2022-10-26T01:00:32.970Z,0
2022-10-26T01:02:12.589Z,0
2022-10-26T01:40:25.211Z,0
2022-10-26T01:41:35.925Z,0
2022-10-26T01:42:37.739Z,0
2022-10-26T02:16:34.354Z,0
2022-10-26T02:17:32.146Z,0
2022-10-26T02:18:28.052Z,0
2022-10-26T02:19:43.741Z,0
2022-10-26T02:20:51.672Z,0
2022-10-26T02:21:29.501Z,0
2022-10-26T02:22:22.437Z,0
2022-10-26T02:23:21.978Z,0
2022-10-26T02:24:26.548Z,0
2022-10-26T02:25:28.768Z,0
2022-10-26T02:26:24.744Z,0
2022-10-26T02:27:29.108Z,0
2022-10-26T02:28:26.512Z,0
2022-10-26T02:29:20.681Z,0
2022-10-26T02:30:25.771Z,0
2022-10-26T02:31:26.523Z,0
2022-10-26T02:32:22.646Z,0
2022-10-26T02:33:30.697Z,0
2022-10-26T02:34:20.030Z,0
2022-10-26T02:35:24.551Z,0
2022-10-26T02:36:28.003Z,0
2022-10-26T02:37:23.227Z,0
2022-10-26T02:38:28.789Z,0
2022-10-26T02:39:24.291Z,0
2022-10-26T02:40:33.942Z,0
2022-10-26T02:41:23.120Z,0
2022-10-26T02:42:24.979Z,0
2022-10-26T02:43:22.961Z,0
2022-10-26T02:44:30.472Z,0
2022-10-26T02:45:20.168Z,0
2022-10-26T02:46:22.540Z,0
2022-10-26T02:47:25.257Z,0
2022-10-26T02:48:24.237Z,0
2022-10-26T02:49:23.005Z,0
2022-10-26T02:50:26.269Z,0
2022-10-26T02:51:31.960Z,0
2022-10-26T02:52:30.860Z,0
2022-10-26T02:53:22.470Z,0
2022-10-26T02:54:32.257Z,0
2022-10-26T02:55:28.296Z,0
2022-10-26T02:56:26.853Z,0
2022-10-26T02:57:28.787Z,0
2022-10-26T02:58:20.213Z,0
2022-10-26T02:59:26.021Z,0
2022-10-26T03:00:26.433Z,0
2022-10-26T03:01:32.374Z,0
2022-10-26T03:02:34.239Z,0
2022-10-26T03:03:24.988Z,0
2022-10-26T03:04:27.778Z,0
2022-10-26T03:05:34.166Z,0
2022-10-26T03:06:26.436Z,0
2022-10-26T03:07:27.648Z,0
2022-10-26T03:08:34.511Z,0
2022-10-26T03:09:29.550Z,0
2022-10-26T03:10:23.743Z,0
2022-10-26T03:11:20.744Z,0
2022-10-26T03:12:22.900Z,0
2022-10-26T03:13:34.333Z,0
2022-10-26T03:14:22.695Z,0
2022-10-26T03:15:24.531Z,0
2022-10-26T03:16:28.582Z,0
2022-10-26T03:17:28.188Z,0
2022-10-26T03:18:22.198Z,0
2022-10-26T03:19:24.839Z,0
2022-10-26T03:20:30.073Z,0
2022-10-26T03:21:25.088Z,0
2022-10-26T03:22:28.660Z,0
2022-10-26T03:23:29.627Z,0
2022-10-26T03:24:27.891Z,0
2022-10-26T03:25:20.690Z,0
2022-10-26T03:26:21.072Z,0
2022-10-26T03:27:26.701Z,0
2022-10-26T03:28:22.261Z,0
2022-10-26T03:29:32.523Z,0
2022-10-26T03:30:24.669Z,0
2022-10-26T03:31:24.712Z,0
2022-10-26T03:32:20.420Z,0
2022-10-26T03:33:33.899Z,0
2022-10-26T03:34:27.428Z,0
2022-10-26T03:35:24.914Z,0
2022-10-26T03:36:34.110Z,0
2022-10-26T03:37:28.952Z,0
2022-10-26T03:38:20.642Z,0
2022-10-26T03:39:22.818Z,0
2022-10-26T03:40:30.606Z,0
2022-10-26T03:41:35.593Z,0
2022-10-26T03:42:27.867Z,0
2022-10-26T03:43:21.460Z,0
2022-10-26T03:44:34.909Z,0
2022-10-26T03:45:25.730Z,0
2022-10-26T03:46:22.275Z,0
2022-10-26T03:47:32.780Z,0
2022-10-26T03:48:29.453Z,0
2022-10-26T03:49:22.740Z,0
2022-10-26T03:50:19.703Z,0
2022-10-26T03:51:29.259Z,0
2022-10-26T03:52:24.493Z,0
2022-10-26T03:53:24.255Z,0
2022-10-26T03:54:32.450Z,0
2022-10-26T03:55:27.116Z,0
2022-10-26T03:56:22.911Z,0
2022-10-26T03:57:22.095Z,0
2022-10-26T03:58:30.775Z,0
2022-10-26T03:59:24.523Z,0
2022-10-26T04:00:27.942Z,0
2022-10-26T04:01:33.992Z,0
2022-10-26T04:02:31.703Z,0
2022-10-26T04:03:22.685Z,0
2022-10-26T04:04:24.255Z,0
2022-10-26T04:05:25.091Z,0
2022-10-26T04:06:24.313Z,0
2022-10-26T04:07:22.447Z,0
2022-10-26T04:08:40.930Z,0
2022-10-26T04:09:27.253Z,0
2022-10-26T04:10:24.597Z,0
2022-10-26T04:11:20.783Z,0
2022-10-26T04:12:25.266Z,0
2022-10-26T04:13:24.959Z,0
2022-10-26T04:14:20.484Z,0
2022-10-26T04:15:21.884Z,0
2022-10-26T04:16:32.660Z,0
2022-10-26T04:17:24.259Z,0
2022-10-26T04:18:31.281Z,0
2022-10-26T04:19:31.801Z,0
2022-10-26T04:20:28.248Z,0
2022-10-26T04:21:20.318Z,0
2022-10-26T04:22:26.572Z,0
2022-10-26T04:23:27.620Z,0
2022-10-26T04:24:22.260Z,0
2022-10-26T04:25:35.076Z,0
2022-10-26T04:26:28.769Z,0
2022-10-26T04:27:27.237Z,0
2022-10-26T04:28:23.733Z,0
2022-10-26T04:29:26.995Z,0
2022-10-26T04:30:27.628Z,0
2022-10-26T04:31:23.642Z,0
2022-10-26T04:32:36.840Z,0
2022-10-26T04:33:24.555Z,0
2022-10-26T04:34:24.404Z,0
2022-10-26T04:35:20.232Z,0
2022-10-26T04:36:30.599Z,0
2022-10-26T04:37:26.551Z,0
2022-10-26T04:38:28.856Z,0
2022-10-26T04:39:37.301Z,0
2022-10-26T04:40:27.837Z,0
2022-10-26T04:41:24.609Z,0
2022-10-26T04:42:20.245Z,0
2022-10-26T04:43:24.150Z,0
2022-10-26T04:44:22.342Z,0
2022-10-26T04:45:25.447Z,0
2022-10-26T04:46:20.972Z,0
2022-10-26T04:47:28.665Z,0
2022-10-26T04:48:29.079Z,0
2022-10-26T04:49:23.790Z,0
2022-10-26T04:50:27.572Z,0
2022-10-26T04:51:24.018Z,0
2022-10-26T04:52:22.974Z,0
2022-10-26T04:53:25.103Z,0
2022-10-26T04:54:30.989Z,0
2022-10-26T04:55:26.205Z,0
2022-10-26T04:56:21.436Z,0
2022-10-26T04:57:32.254Z,0
2022-10-26T04:58:21.791Z,0
2022-10-26T04:59:25.144Z,0
2022-10-26T05:00:30.544Z,0
2022-10-26T05:01:24.316Z,0
2022-10-26T05:02:20.994Z,0
2022-10-26T05:03:22.307Z,0
2022-10-26T05:04:34.340Z,0
2022-10-26T05:05:29.221Z,0
2022-10-26T05:06:24.360Z,0
2022-10-26T05:07:34.445Z,0
2022-10-26T05:08:34.088Z,0
2022-10-26T05:09:26.140Z,0
2022-10-26T05:10:22.377Z,0
2022-10-26T05:11:30.333Z,0
2022-10-26T05:12:26.534Z,0
2022-10-26T05:13:24.846Z,0
2022-10-26T05:14:32.263Z,0
2022-10-26T05:15:31.399Z,0
2022-10-26T05:16:28.891Z,0
2022-10-26T05:17:36.093Z,0
2022-10-26T05:18:33.698Z,0
2022-10-26T05:19:33.931Z,0
2022-10-26T05:20:24.507Z,0
2022-10-26T05:21:21.655Z,0
2022-10-26T05:22:32.463Z,0
2022-10-26T05:23:27.220Z,0
2022-10-26T05:24:21.239Z,0
2022-10-26T05:25:33.414Z,0
2022-10-26T05:26:26.368Z,0
2022-10-26T05:27:27.423Z,0
2022-10-26T05:28:24.412Z,0
2022-10-26T05:29:28.867Z,0
2022-10-26T05:30:26.557Z,0
2022-10-26T05:31:20.889Z,0
2022-10-26T05:32:30.773Z,0
2022-10-26T05:33:27.578Z,0
2022-10-26T05:34:22.382Z,0
2022-10-26T05:35:29.843Z,0
2022-10-26T05:36:22.643Z,0
2022-10-26T05:37:24.339Z,0
2022-10-26T05:38:30.283Z,0
2022-10-26T05:39:21.356Z,0
2022-10-26T05:40:26.747Z,0
2022-10-26T05:41:25.044Z,0
2022-10-26T05:42:40.323Z,0
2022-10-26T05:43:25.416Z,-0
2022-10-26T05:44:27.658Z,-0
2022-10-26T05:45:24.304Z,0
2022-10-26T05:46:27.270Z,0
2022-10-26T05:47:27.423Z,0
2022-10-26T05:48:23.853Z,0
2022-10-26T05:49:20.936Z,0
2022-10-26T05:50:33.310Z,0
2022-10-26T05:51:25.864Z,0
2022-10-26T05:52:21.240Z,0
2022-10-26T05:53:38.250Z,0
2022-10-26T05:54:23.215Z,0
2022-10-26T05:55:22.855Z,0
2022-10-26T05:56:28.293Z,0
2022-10-26T05:57:30.643Z,0
2022-10-26T05:58:29.618Z,0
2022-10-26T05:59:23.080Z,0
2022-10-26T06:00:35.093Z,0
2022-10-26T06:01:26.849Z,0
2022-10-26T06:02:25.432Z,0
2022-10-26T06:03:32.938Z,0
2022-10-26T06:04:29.218Z,0
2022-10-26T06:05:26.093Z,0
2022-10-26T06:06:22.119Z,0
2022-10-26T06:07:22.011Z,0
2022-10-26T06:08:28.747Z,0
2022-10-26T06:09:26.805Z,0
2022-10-26T06:10:35.117Z,0
2022-10-26T06:11:30.006Z,0
2022-10-26T06:12:29.064Z,0
2022-10-26T06:13:33.655Z,0
2022-10-26T06:14:21.438Z,0
2022-10-26T06:15:26.527Z,0
2022-10-26T06:16:23.476Z,0
2022-10-26T06:17:26.954Z,0
2022-10-26T06:18:20.104Z,0
2022-10-26T06:19:29.629Z,0
2022-10-26T06:20:21.484Z,0
2022-10-26T06:21:30.919Z,0
2022-10-26T06:22:26.688Z,0
2022-10-26T06:23:22.511Z,0
2022-10-26T06:24:25.141Z,0
2022-10-26T06:25:25.289Z,0
2022-10-26T06:26:26.416Z,0
2022-10-26T06:27:21.269Z,0
2022-10-26T06:28:35.952Z,0
2022-10-26T06:29:24.616Z,1
2022-10-26T06:30:22.568Z,1
2022-10-26T06:31:28.054Z,1
2022-10-26T06:32:22.241Z,1
2022-10-26T06:33:29.520Z,1
2022-10-26T06:34:22.145Z,1
2022-10-26T06:35:32.850Z,1
2022-10-26T06:36:20.986Z,1
2022-10-26T06:37:23.956Z,1
2022-10-26T06:38:35.143Z,1
2022-10-26T06:39:26.200Z,1
2022-10-26T06:40:24.488Z,1
2022-10-26T06:41:20.479Z,1
2022-10-26T06:42:33.165Z,1
2022-10-26T06:43:27.907Z,1
2022-10-26T06:44:24.271Z,1
2022-10-26T06:45:32.522Z,1
2022-10-26T06:46:31.792Z,1
2022-10-26T06:47:24.347Z,1
2022-10-26T06:48:22.850Z,1
2022-10-26T06:49:32.963Z,1
2022-10-26T06:50:27.203Z,1
2022-10-26T06:51:22.237Z,1
2022-10-26T06:52:22.872Z,1
2022-10-26T06:53:28.705Z,1
2022-10-26T06:54:25.759Z,1
2022-10-26T06:55:26.464Z,1
2022-10-26T06:56:35.451Z,1
2022-10-26T06:57:27.838Z,1
2022-10-26T06:58:23.658Z,1
2022-10-26T06:59:27.256Z,1
2022-10-26T07:00:37.254Z,1
2022-10-26T07:01:26.466Z,1
2022-10-26T07:02:24.421Z,1
2022-10-26T07:03:32.469Z,1
2022-10-26T07:04:39.080Z,1
2022-10-26T07:05:24.138Z,1
2022-10-26T07:06:39.270Z,1
2022-10-26T07:07:22.261Z,1
2022-10-26T07:08:24.741Z,1
2022-10-26T07:09:20.756Z,1
2022-10-26T07:10:20.529Z,1
2022-10-26T07:11:30.022Z,1
2022-10-26T07:12:23.724Z,1
2022-10-26T07:13:33.691Z,1
2022-10-26T07:14:47.347Z,1
2022-10-26T07:15:19.304Z,1
2022-10-26T07:16:21.409Z,1
2022-10-26T07:17:25.497Z,1
2022-10-26T07:18:26.550Z,1
2022-10-26T07:19:24.470Z,1
2022-10-26T07:20:33.560Z,1
2022-10-26T07:21:30.516Z,1
2022-10-26T07:22:29.971Z,1
2022-10-26T07:23:21.567Z,1
2022-10-26T07:24:35.822Z,1
2022-10-26T07:25:23.616Z,1
2022-10-26T07:26:22.661Z,1
2022-10-26T07:27:38.632Z,1
2022-10-26T07:28:31.720Z,1
2022-10-26T07:29:24.583Z,2
2022-10-26T07:30:26.725Z,1
2022-10-26T07:31:32.003Z,1
2022-10-26T07:32:27.560Z,2
2022-10-26T07:33:22.628Z,2
2022-10-26T07:34:32.681Z,2
2022-10-26T07:35:31.924Z,2
2022-10-26T07:36:28.546Z,2
2022-10-26T07:37:21.890Z,2
2022-10-26T07:38:33.325Z,2
2022-10-26T07:39:23.073Z,2
2022-10-26T07:40:23.683Z,2
2022-10-26T07:41:22.259Z,2
2022-10-26T07:42:28.953Z,2
2022-10-26T07:43:25.782Z,2
2022-10-26T07:44:22.833Z,2
2022-10-26T07:45:26.455Z,2
2022-10-26T07:46:29.112Z,2
2022-10-26T07:47:24.855Z,2
2022-10-26T07:48:26.689Z,2
2022-10-26T07:49:29.155Z,2
2022-10-26T07:50:21.712Z,2
2022-10-26T07:51:21.151Z,2
2022-10-26T07:52:21.141Z,2
2022-10-26T07:53:27.946Z,2
2022-10-26T07:54:25.324Z,2
2022-10-26T07:55:24.145Z,2
2022-10-26T07:56:27.959Z,2
2022-10-26T07:57:25.359Z,2
2022-10-26T07:58:22.060Z,2
2022-10-26T07:59:24.187Z,2
2022-10-26T08:00:23.686Z,2
2022-10-26T08:01:25.350Z,2
2022-10-26T08:02:27.806Z,2
2022-10-26T08:03:19.801Z,2
2022-10-26T08:04:24.829Z,2
2022-10-26T08:05:22.071Z,2
2022-10-26T08:06:26.061Z,2
2022-10-26T08:07:23.344Z,2
2022-10-26T08:08:24.146Z,2
2022-10-26T08:09:34.278Z,2
2022-10-26T08:10:24.847Z,2
2022-10-26T08:11:24.694Z,2
2022-10-26T08:12:23.987Z,2
2022-10-26T08:13:31.471Z,3
2022-10-26T08:14:31.582Z,3
2022-10-26T08:15:24.948Z,3
2022-10-26T08:16:37.214Z,3
2022-10-26T08:17:26.301Z,2
2022-10-26T08:18:23.588Z,2
2022-10-26T08:19:23.220Z,2
2022-10-26T08:20:32.093Z,3
2022-10-26T08:21:39.221Z,3
2022-10-26T08:22:22.728Z,3
2022-10-26T08:23:23.624Z,3
2022-10-26T08:24:24.291Z,3
2022-10-26T08:25:26.976Z,3
2022-10-26T08:26:24.766Z,3
2022-10-26T08:27:36.185Z,3
2022-10-26T08:28:23.564Z,3
2022-10-26T08:29:22.741Z,3
2022-10-26T08:30:38.687Z,3
2022-10-26T08:31:32.428Z,3
2022-10-26T08:32:24.577Z,3
2022-10-26T08:33:24.952Z,3
2022-10-26T08:34:30.492Z,3
2022-10-26T08:35:20.715Z,3
2022-10-26T08:36:23.513Z,3
2022-10-26T08:37:34.238Z,3
2022-10-26T08:38:26.665Z,3
2022-10-26T08:39:19.873Z,3
2022-10-26T08:40:20.669Z,3
2022-10-26T08:41:25.631Z,3
2022-10-26T08:42:30.657Z,3
2022-10-26T08:43:23.714Z,3
2022-10-26T08:44:34.421Z,3
2022-10-26T08:45:36.509Z,3
2022-10-26T08:46:24.630Z,3
2022-10-26T08:47:21.069Z,3
2022-10-26T08:48:24.312Z,3
2022-10-26T08:49:26.367Z,3
2022-10-26T08:50:22.617Z,3
2022-10-26T08:51:32.826Z,3
2022-10-26T08:52:23.760Z,3
2022-10-26T08:53:26.736Z,3
2022-10-26T08:54:21.171Z,3
2022-10-26T08:55:28.575Z,3
2022-10-26T08:56:21.339Z,3
2022-10-26T08:57:24.770Z,3
2022-10-26T08:58:29.751Z,3
2022-10-26T08:59:30.501Z,3
2022-10-26T09:00:24.470Z,3
2022-10-26T09:01:21.771Z,3
2022-10-26T09:02:32.712Z,3
2022-10-26T09:03:21.522Z,3
2022-10-26T09:04:25.032Z,3
2022-10-26T09:05:36.738Z,3
2022-10-26T09:06:28.816Z,4
2022-10-26T09:07:28.810Z,4
2022-10-26T09:08:21.999Z,4
2022-10-26T09:09:36.688Z,4
2022-10-26T09:10:30.462Z,4
2022-10-26T09:11:22.943Z,4
2022-10-26T09:12:32.609Z,4
2022-10-26T09:13:30.171Z,4
2022-10-26T09:14:24.847Z,4
2022-10-26T09:15:23.755Z,4
2022-10-26T09:16:25.041Z,4
2022-10-26T09:17:26.838Z,4
2022-10-26T09:18:26.241Z,3
2022-10-26T09:19:33.560Z,4
2022-10-26T09:20:23.222Z,4
2022-10-26T09:21:24.837Z,4
2022-10-26T09:22:20.762Z,4
2022-10-26T09:23:28.489Z,3
2022-10-26T09:24:21.092Z,3
2022-10-26T09:25:22.951Z,4
2022-10-26T09:26:23.512Z,4
2022-10-26T09:27:28.756Z,4
2022-10-26T09:28:24.750Z,4
2022-10-26T09:29:22.698Z,4
2022-10-26T09:30:32.701Z,4
2022-10-26T09:31:27.325Z,4
2022-10-26T09:32:22.969Z,4
2022-10-26T09:33:26.788Z,4
2022-10-26T09:34:29.380Z,4
2022-10-26T09:35:26.039Z,4
2022-10-26T09:36:23.725Z,4
2022-10-26T09:37:23.660Z,4
2022-10-26T09:38:30.143Z,4
2022-10-26T09:39:23.550Z,4
2022-10-26T09:40:26.180Z,5
2022-10-26T09:41:27.055Z,5
2022-10-26T09:42:24.688Z,5
2022-10-26T09:43:20.794Z,5
2022-10-26T09:44:23.721Z,5
2022-10-26T09:45:28.370Z,5
2022-10-26T09:46:22.746Z,5
2022-10-26T09:47:30.461Z,5
2022-10-26T09:48:20.886Z,5
2022-10-26T09:49:21.465Z,5
2022-10-26T09:50:21.773Z,5
2022-10-26T09:51:25.820Z,6
2022-10-26T09:52:26.536Z,6
2022-10-26T09:53:23.131Z,10
2022-10-26T09:54:25.453Z,16
2022-10-26T09:55:32.851Z,24
2022-10-26T09:56:24.510Z,31
2022-10-26T09:57:20.676Z,39
2022-10-26T09:58:27.191Z,42
2022-10-26T09:59:27.718Z,44
2022-10-26T10:00:22.576Z,45
2022-10-26T10:01:27.048Z,45
2022-10-26T10:02:23.646Z,46
2022-10-26T10:03:27.541Z,46
2022-10-26T10:04:37.465Z,46
2022-10-26T10:06:01.295Z,46
2022-10-26T10:06:30.965Z,46
2022-10-26T10:07:25.169Z,44
2022-10-26T10:08:33.913Z,42
2022-10-26T10:09:25.190Z,42
2022-10-26T10:10:27.188Z,40
2022-10-26T10:11:21.684Z,30
2022-10-26T10:12:33.164Z,29
2022-10-26T10:13:20.318Z,26
2022-10-26T10:14:23.899Z,24
2022-10-26T10:15:36.780Z,25
2022-10-26T10:16:22.878Z,26
2022-10-26T10:17:21.161Z,28
2022-10-26T10:18:20.983Z,28
2022-10-26T10:19:21.850Z,23
2022-10-26T10:20:27.327Z,23
2022-10-26T10:21:26.035Z,19
2022-10-26T10:22:24.886Z,18
2022-10-26T10:23:34.326Z,18
2022-10-26T10:24:26.199Z,22
2022-10-26T10:25:21.702Z,26
2022-10-26T10:26:25.831Z,33
2022-10-26T10:27:28.030Z,35
2022-10-26T10:28:23.370Z,38
2022-10-26T10:29:32.669Z,43
2022-10-26T10:30:30.830Z,43
2022-10-26T10:31:21.047Z,41
2022-10-26T10:32:22.619Z,42
2022-10-26T10:33:24.819Z,43
2022-10-26T10:34:26.217Z,44
2022-10-26T10:35:22.881Z,45
2022-10-26T10:36:32.872Z,45
2022-10-26T10:37:28.737Z,45
2022-10-26T10:38:24.839Z,45
2022-10-26T10:39:22.173Z,45
2022-10-26T10:40:22.442Z,45
2022-10-26T10:41:37.794Z,45
2022-10-26T10:42:21.217Z,45
2022-10-26T10:43:32.690Z,45
2022-10-26T10:44:30.273Z,46
2022-10-26T10:45:29.005Z,46
2022-10-26T10:46:22.519Z,46
2022-10-26T10:47:25.881Z,46
2022-10-26T10:48:33.461Z,47
2022-10-26T10:49:23.926Z,47
2022-10-26T10:50:30.108Z,48
2022-10-26T10:51:44.524Z,48
2022-10-26T10:52:28.533Z,47
2022-10-26T10:53:20.814Z,47
2022-10-26T10:54:33.585Z,45
2022-10-26T10:55:20.684Z,36
2022-10-26T10:56:31.634Z,33
2022-10-26T10:57:20.847Z,32
2022-10-26T10:58:28.452Z,31
2022-10-26T10:59:25.874Z,21
2022-10-26T11:00:21.213Z,21
2022-10-26T11:01:20.659Z,33
2022-10-26T11:02:28.483Z,37
2022-10-26T11:03:25.949Z,39
2022-10-26T11:04:28.288Z,41
2022-10-26T11:05:30.363Z,31
2022-10-26T11:06:24.489Z,39
2022-10-26T11:07:28.892Z,38
2022-10-26T11:08:33.568Z,41
2022-10-26T11:09:29.102Z,40
2022-10-26T11:10:26.292Z,40
2022-10-26T11:11:28.939Z,29
2022-10-26T11:12:22.291Z,34
2022-10-26T11:13:26.037Z,37
2022-10-26T11:14:20.848Z,43
2022-10-26T11:15:31.971Z,44
2022-10-26T11:16:26.909Z,41
2022-10-26T11:17:24.389Z,41
2022-10-26T11:18:22.895Z,45
2022-10-26T11:19:25.736Z,46
2022-10-26T11:20:27.704Z,46
2022-10-26T11:21:22.435Z,46
2022-10-26T11:22:35.716Z,46
2022-10-26T11:23:28.899Z,46
2022-10-26T11:24:22.553Z,46
2022-10-26T11:25:25.765Z,46
2022-10-26T11:26:31.480Z,46
2022-10-26T11:27:28.330Z,46
2022-10-26T11:28:20.575Z,46
2022-10-26T11:29:22.184Z,46
2022-10-26T11:30:30.991Z,46
2022-10-26T11:31:23.166Z,46
2022-10-26T11:32:27.931Z,47
2022-10-26T11:33:20.981Z,47
2022-10-26T11:34:27.061Z,47
2022-10-26T11:35:23.386Z,47
2022-10-26T11:36:22.989Z,47
2022-10-26T11:37:26.707Z,48
2022-10-26T11:38:38.942Z,48
2022-10-26T11:39:32.684Z,48
2022-10-26T11:40:27.662Z,48
2022-10-26T11:41:24.847Z,48
2022-10-26T11:42:24.185Z,49
2022-10-26T11:43:27.729Z,49
2022-10-26T11:44:26.892Z,49
2022-10-26T11:45:27.005Z,50
2022-10-26T11:46:21.612Z,50
2022-10-26T11:47:20.175Z,51
2022-10-26T11:48:25.718Z,51
2022-10-26T11:49:21.199Z,51
2022-10-26T11:50:22.147Z,52
2022-10-26T11:51:29.353Z,51
2022-10-26T11:52:24.983Z,43
2022-10-26T11:53:33.904Z,45
2022-10-26T11:54:22.897Z,43
2022-10-26T11:55:28.426Z,46
2022-10-26T11:56:20.773Z,30
2022-10-26T11:57:27.759Z,23
2022-10-26T11:58:26.670Z,19
2022-10-26T11:59:22.874Z,20
2022-10-26T12:00:33.078Z,19
2022-10-26T12:01:28.677Z,18
2022-10-26T12:02:30.833Z,24
2022-10-26T12:03:24.973Z,26
2022-10-26T12:04:30.378Z,17
2022-10-26T12:05:21.902Z,14
2022-10-26T12:06:23.425Z,17
2022-10-26T12:07:50.201Z,32
2022-10-26T12:08:42.002Z,39
2022-10-26T12:09:26.565Z,52
2022-10-26T12:10:24.791Z,46
2022-10-26T12:11:22.016Z,40
2022-10-26T12:12:31.579Z,39
2022-10-26T12:13:26.077Z,25
2022-10-26T12:14:26.749Z,31
2022-10-26T12:15:40.096Z,30
2022-10-26T12:16:24.507Z,31
2022-10-26T12:17:23.554Z,27
2022-10-26T12:18:43.068Z,26
2022-10-26T12:19:32.757Z,29
2022-10-26T12:20:27.017Z,40
2022-10-26T12:21:34.367Z,48
2022-10-26T12:22:29.338Z,56
2022-10-26T12:23:40.632Z,56
2022-10-26T12:24:23.391Z,56
2022-10-26T12:25:30.897Z,56
2022-10-26T12:26:23.476Z,55
2022-10-26T12:27:22.955Z,54
2022-10-26T12:28:21.749Z,53
2022-10-26T12:29:30.959Z,53
2022-10-26T12:30:24.945Z,52
2022-10-26T12:31:23.901Z,52
2022-10-26T12:32:40.235Z,53
2022-10-26T12:33:26.928Z,53
2022-10-26T12:34:21.356Z,52
2022-10-26T12:35:25.526Z,52
2022-10-26T12:36:34.011Z,52
2022-10-26T12:37:28.125Z,52
2022-10-26T12:38:22.261Z,52
2022-10-26T12:39:30.849Z,51
2022-10-26T12:40:28.183Z,51
2022-10-26T12:41:22.861Z,51
2022-10-26T12:42:23.041Z,50
2022-10-26T12:43:21.202Z,50
2022-10-26T12:44:25.519Z,50
2022-10-26T12:45:23.174Z,49
2022-10-26T12:46:31.881Z,49
2022-10-26T12:47:26.767Z,49
2022-10-26T12:48:39.424Z,49
2022-10-26T12:49:21.059Z,48
2022-10-26T12:50:24.573Z,48
2022-10-26T12:51:24.903Z,48
2022-10-26T12:52:20.925Z,48
2022-10-26T12:53:31.949Z,48
2022-10-26T12:54:30.762Z,48
2022-10-26T12:55:22.805Z,48
2022-10-26T12:56:24.631Z,48
2022-10-26T12:57:28.730Z,47
2022-10-26T12:58:23.360Z,47
2022-10-26T12:59:25.575Z,47
2022-10-26T13:00:32.725Z,47
2022-10-26T13:01:26.825Z,47
2022-10-26T13:02:24.859Z,47
2022-10-26T13:03:28.364Z,46
2022-10-26T13:04:21.367Z,46
2022-10-26T13:05:26.524Z,46
2022-10-26T13:06:21.646Z,46
2022-10-26T13:07:32.953Z,46
2022-10-26T13:08:28.655Z,46
2022-10-26T13:09:22.752Z,46
2022-10-26T13:10:24.148Z,45
2022-10-26T13:11:26.310Z,45
2022-10-26T13:12:25.516Z,45
2022-10-26T13:13:24.245Z,45
2022-10-26T13:14:37.779Z,45
2022-10-26T13:15:26.668Z,45
2022-10-26T13:16:24.893Z,45
2022-10-26T13:17:26.651Z,44
2022-10-26T13:18:32.561Z,44
2022-10-26T13:19:50.671Z,44
2022-10-26T13:20:23.203Z,44
2022-10-26T13:21:20.963Z,44
2022-10-26T13:22:29.328Z,43
2022-10-26T13:23:22.647Z,43
2022-10-26T13:24:28.213Z,43
2022-10-26T13:25:30.724Z,42
2022-10-26T13:26:27.373Z,42
2022-10-26T13:27:21.945Z,42
2022-10-26T13:28:23.577Z,42
2022-10-26T13:29:30.132Z,42
2022-10-26T13:30:24.340Z,42
2022-10-26T13:31:34.594Z,42
2022-10-26T13:32:29.892Z,41
2022-10-26T13:33:31.147Z,41
2022-10-26T13:34:20.746Z,41
2022-10-26T13:35:27.845Z,41
2022-10-26T13:36:20.743Z,40
2022-10-26T13:37:25.296Z,39
2022-10-26T13:38:33.754Z,39
2022-10-26T13:39:22.759Z,37
2022-10-26T13:40:27.975Z,38
2022-10-26T13:41:20.576Z,38
2022-10-26T13:42:22.308Z,38
2022-10-26T13:43:27.087Z,39
2022-10-26T13:44:25.179Z,36
2022-10-26T13:45:39.172Z,32
2022-10-26T13:46:24.327Z,32
2022-10-26T13:47:26.691Z,32
2022-10-26T13:48:21.640Z,35
2022-10-26T13:49:25.590Z,35
2022-10-26T13:50:32.033Z,32
2022-10-26T13:51:23.177Z,30
2022-10-26T13:52:35.595Z,31
2022-10-26T13:53:29.593Z,32
2022-10-26T13:54:28.574Z,32
2022-10-26T13:55:22.113Z,31
2022-10-26T13:56:35.117Z,31
2022-10-26T13:57:22.704Z,31
2022-10-26T13:58:25.611Z,33
2022-10-26T13:59:35.062Z,34
2022-10-26T14:00:29.922Z,31
2022-10-26T14:01:26.241Z,31
2022-10-26T14:02:22.717Z,32
2022-10-26T14:03:31.713Z,31
2022-10-26T14:04:27.781Z,32
2022-10-26T14:05:19.634Z,36
2022-10-26T14:06:22.703Z,37
2022-10-26T14:07:30.397Z,36
2022-10-26T14:08:20.262Z,36
2022-10-26T14:09:22.547Z,36
2022-10-26T14:10:31.755Z,36
2022-10-26T14:11:31.008Z,36
2022-10-26T14:12:24.033Z,36
2022-10-26T14:13:28.113Z,36
2022-10-26T14:14:19.900Z,34
2022-10-26T14:15:24.887Z,33
2022-10-26T14:16:20.861Z,33
2022-10-26T14:17:30.685Z,32
2022-10-26T14:18:29.629Z,29
2022-10-26T14:19:22.908Z,28
2022-10-26T14:20:23.041Z,27
2022-10-26T14:21:35.277Z,27
2022-10-26T14:22:26.465Z,29
2022-10-26T14:23:20.815Z,27
2022-10-26T14:24:46.222Z,28
2022-10-26T14:25:41.967Z,27
2022-10-26T14:26:27.639Z,24
2022-10-26T14:27:25.714Z,23
2022-10-26T14:28:32.027Z,23
2022-10-26T14:29:26.071Z,23
2022-10-26T14:30:23.160Z,25
2022-10-26T14:31:33.409Z,28
2022-10-26T14:32:26.601Z,28
2022-10-26T14:33:25.578Z,30
2022-10-26T14:34:29.395Z,31
2022-10-26T14:35:23.663Z,28
2022-10-26T14:36:28.330Z,26
2022-10-26T14:37:20.880Z,26
2022-10-26T14:38:32.485Z,23
2022-10-26T14:39:28.841Z,24
2022-10-26T14:40:24.477Z,24
2022-10-26T14:41:35.078Z,24
2022-10-26T14:42:31.426Z,23
2022-10-26T14:43:22.534Z,19
2022-10-26T14:44:22.232Z,18
2022-10-26T14:45:49.688Z,17
2022-10-26T14:46:31.037Z,15
2022-10-26T14:47:23.522Z,14
2022-10-26T14:48:32.996Z,14
2022-10-26T14:49:31.595Z,13
2022-10-26T14:50:27.796Z,12
2022-10-26T14:51:25.943Z,12
2022-10-26T14:52:31.258Z,12
2022-10-26T14:53:26.982Z,12
2022-10-26T14:54:24.120Z,12
2022-10-26T14:55:20.966Z,12
2022-10-26T14:56:28.906Z,12
2022-10-26T14:57:31.129Z,11
2022-10-26T14:58:34.741Z,10
2022-10-26T14:59:26.443Z,8
2022-10-26T15:00:26.834Z,8
2022-10-26T15:01:25.275Z,8
2022-10-26T15:02:25.146Z,8
2022-10-26T15:03:30.282Z,8
2022-10-26T15:04:27.752Z,7
2022-10-26T15:05:23.391Z,7
2022-10-26T15:06:27.843Z,7
2022-10-26T15:07:19.436Z,7
2022-10-26T15:08:33.667Z,7
2022-10-26T15:09:27.098Z,6
2022-10-26T15:10:29.700Z,6
2022-10-26T15:11:26.397Z,6
2022-10-26T15:12:21.015Z,5
2022-10-26T15:13:22.378Z,5
2022-10-26T15:14:27.900Z,5
2022-10-26T15:15:23.614Z,5
2022-10-26T15:16:29.041Z,5
2022-10-26T15:17:30.300Z,5
2022-10-26T15:18:24.939Z,5
2022-10-26T15:19:21.355Z,6
2022-10-26T15:20:32.884Z,6
2022-10-26T15:21:28.600Z,5
2022-10-26T15:22:22.911Z,5
2022-10-26T15:23:33.334Z,5
2022-10-26T15:24:30.207Z,4
2022-10-26T15:25:21.315Z,4
2022-10-26T15:26:22.789Z,4
2022-10-26T15:27:27.750Z,4
2022-10-26T15:28:25.359Z,5
2022-10-26T15:29:24.948Z,5
2022-10-26T15:30:35.858Z,5
2022-10-26T15:31:24.815Z,6
2022-10-26T15:32:25.471Z,6
2022-10-26T15:33:22.754Z,6
2022-10-26T15:34:32.929Z,5
2022-10-26T15:35:27.768Z,5
2022-10-26T15:36:23.552Z,5
2022-10-26T15:37:27.061Z,4
2022-10-26T15:38:31.212Z,4
2022-10-26T15:39:48.718Z,4
2022-10-26T15:40:21.426Z,4
2022-10-26T15:41:33.147Z,4
2022-10-26T15:42:24.179Z,4
2022-10-26T15:43:24.835Z,4
2022-10-26T15:44:26.701Z,4
2022-10-26T15:45:29.167Z,4
2022-10-26T15:46:24.688Z,4